createdAt,value
2019-05-03T00:02:34.458Z,84.00
2019-05-03T00:05:05.459Z,84.10
2019-05-03T00:07:34.791Z,82.00
2019-05-03T00:10:04.455Z,80.50
2019-05-03T00:12:33.764Z,79.40
2019-05-03T00:15:08.843Z,81.60
2019-05-03T00:17:38.258Z,78.50
2019-05-03T00:20:07.706Z,81.60
2019-05-03T00:22:37.780Z,79.60
2019-05-03T00:25:08.479Z,81.70
2019-05-03T00:27:37.273Z,81.80
2019-05-03T00:30:07.876Z,82.30
2019-05-03T00:32:37.446Z,79.80
2019-05-03T00:35:17.294Z,80.10
2019-05-03T00:37:47.472Z,82.50
2019-05-03T00:40:18.156Z,81.80
2019-05-03T00:42:47.434Z,79.90
2019-05-03T00:45:16.740Z,80.60
2019-05-03T00:47:47.165Z,80.90
2019-05-03T00:50:16.054Z,81.00
2019-05-03T00:52:46.430Z,82.10
2019-05-03T00:55:18.762Z,82.00
2019-05-03T00:57:45.998Z,84.80
2019-05-03T01:00:15.317Z,84.50
2019-05-03T01:02:44.721Z,82.70
2019-05-03T01:05:14.579Z,82.70
2019-05-03T01:07:43.798Z,83.60
2019-05-03T01:10:13.312Z,81.40
2019-05-03T01:12:42.861Z,82.40
2019-05-03T01:15:12.467Z,80.50
2019-05-03T01:17:42.050Z,81.80
2019-05-03T01:20:11.956Z,83.00
2019-05-03T01:22:42.494Z,83.60
2019-05-03T01:25:12.095Z,84.50
2019-05-03T01:27:42.688Z,84.70
2019-05-03T01:30:11.946Z,82.90
2019-05-03T01:32:41.817Z,83.00
2019-05-03T01:35:12.306Z,82.90
2019-05-03T01:37:42.507Z,79.70
2019-05-03T01:40:12.526Z,79.50
2019-05-03T01:42:42.642Z,79.70
2019-05-03T01:45:12.068Z,80.80
2019-05-03T01:47:45.194Z,81.00
2019-05-03T01:50:19.647Z,83.30
2019-05-03T01:52:50.064Z,83.90
2019-05-03T01:55:19.788Z,83.90
2019-05-03T01:57:49.798Z,83.80
2019-05-03T02:00:23.189Z,84.30
2019-05-03T02:02:53.203Z,87.40
2019-05-03T02:08:19.560Z,86.10
2019-05-03T02:10:51.649Z,87.70
2019-05-03T02:13:19.998Z,87.70
2019-05-03T02:15:49.606Z,88.30
2019-05-03T02:18:19.005Z,88.00
2019-05-03T02:20:48.638Z,86.90
2019-05-03T02:23:18.055Z,87.80
2019-05-03T02:25:55.930Z,88.70
2019-05-03T02:28:17.960Z,88.00
2019-05-03T02:30:47.662Z,87.80
2019-05-03T02:33:17.273Z,87.60
2019-05-03T02:35:46.880Z,87.70
2019-05-03T02:38:16.493Z,87.60
2019-05-03T02:40:46.231Z,88.20
2019-05-03T02:43:16.693Z,90.20
2019-05-03T02:45:51.768Z,90.10
2019-05-03T02:51:20.244Z,91.00
2019-05-03T02:53:49.519Z,91.00
2019-05-03T02:56:22.463Z,91.20
2019-05-03T02:58:48.989Z,91.30
2019-05-03T03:01:18.901Z,91.90
2019-05-03T03:03:48.390Z,91.90
2019-05-03T03:06:18.260Z,92.00
2019-05-03T03:08:48.852Z,93.50
2019-05-03T03:11:18.474Z,93.40
2019-05-03T03:13:49.387Z,93.50
2019-05-03T03:16:20.832Z,93.50
2019-05-03T03:18:49.434Z,93.60
2019-05-03T03:21:19.637Z,93.90
2019-05-03T03:24:01.900Z,94.00
2019-05-03T03:26:39.255Z,94.00
2019-05-03T03:29:05.312Z,94.30
2019-05-03T03:31:48.582Z,95.00
2019-05-03T03:34:18.679Z,95.20
2019-05-03T03:37:03.573Z,95.30
2019-05-03T03:39:21.183Z,95.20
2019-05-03T03:41:51.226Z,95.30
2019-05-03T03:44:21.113Z,96.80
2019-05-03T03:46:50.561Z,96.40
2019-05-03T03:49:20.758Z,97.50
2019-05-03T03:51:51.496Z,97.00
2019-05-03T03:54:21.568Z,97.10
2019-05-03T03:56:59.373Z,98.60
2019-05-03T03:59:26.663Z,97.90
2019-05-03T04:01:55.323Z,97.50
2019-05-03T04:04:26.012Z,97.60
2019-05-03T04:06:58.600Z,98.50
2019-05-03T04:09:25.521Z,98.50
2019-05-03T04:11:56.437Z,98.50
2019-05-03T04:14:25.395Z,98.90
2019-05-03T04:17:05.958Z,98.90
2019-05-03T04:19:36.458Z,99.90
2019-05-03T04:22:05.854Z,99.90
2019-05-03T04:24:35.616Z,99.90
2019-05-03T04:27:15.642Z,99.90
2019-05-03T04:29:37.405Z,99.90
2019-05-03T04:32:08.578Z,99.90
2019-05-03T04:34:39.187Z,99.90
2019-05-03T04:37:08.808Z,99.90
2019-05-03T04:39:38.523Z,99.90
2019-05-03T04:42:08.220Z,99.90
2019-05-03T04:44:37.800Z,99.90
2019-05-03T04:47:07.310Z,99.90
2019-05-03T04:49:37.688Z,99.90
2019-05-03T04:52:07.263Z,99.90
2019-05-03T04:54:36.876Z,99.90
2019-05-03T04:57:06.782Z,99.90
2019-05-03T04:59:36.599Z,99.90
2019-05-03T05:02:06.259Z,99.90
2019-05-03T05:04:36.311Z,99.90
2019-05-03T05:07:06.227Z,99.90
2019-05-03T05:09:35.786Z,99.90
2019-05-03T05:12:05.850Z,99.90
2019-05-03T05:14:35.587Z,99.90
2019-05-03T05:17:06.141Z,99.90
2019-05-03T05:22:31.996Z,99.90
2019-05-03T05:25:04.364Z,99.90
2019-05-03T05:27:34.643Z,99.90
2019-05-03T05:30:04.584Z,99.90
2019-05-03T05:32:34.959Z,99.90
2019-05-03T05:35:05.165Z,99.90
2019-05-03T05:37:35.125Z,99.90
2019-05-03T05:40:05.192Z,99.90
2019-05-03T05:42:35.036Z,99.90
2019-05-03T05:45:04.918Z,99.90
2019-05-03T05:47:35.309Z,99.90
2019-05-03T05:50:06.122Z,99.90
2019-05-03T05:52:35.219Z,99.90
2019-05-03T05:55:07.869Z,99.90
2019-05-03T05:57:38.505Z,99.90
2019-05-03T06:00:25.664Z,99.90
2019-05-03T06:02:55.141Z,99.90
2019-05-03T06:05:25.196Z,99.90
2019-05-03T06:07:55.198Z,99.90
2019-05-03T06:10:30.507Z,99.90
2019-05-03T06:13:05.543Z,99.90
2019-05-03T06:15:54.703Z,99.90
2019-05-03T06:18:25.114Z,99.90
2019-05-03T06:21:00.060Z,99.90
2019-05-03T06:23:29.671Z,99.90
2019-05-03T06:25:59.683Z,99.90
2019-05-03T06:28:29.725Z,99.90
2019-05-03T06:31:15.449Z,99.90
2019-05-03T06:33:45.110Z,99.90
2019-05-03T06:36:15.266Z,99.90
2019-05-03T06:38:45.274Z,99.90
2019-05-03T06:41:15.147Z,99.90
2019-05-03T06:43:48.512Z,99.90
2019-05-03T06:46:18.163Z,99.90
2019-05-03T06:48:44.889Z,99.90
2019-05-03T06:51:17.827Z,99.90
2019-05-03T06:53:48.937Z,99.90
2019-05-03T06:56:14.938Z,99.90
2019-05-03T06:58:44.869Z,99.90
2019-05-03T07:01:18.182Z,99.90
2019-05-03T07:03:48.910Z,99.90
2019-05-03T07:06:37.447Z,99.90
2019-05-03T07:08:59.998Z,99.90
2019-05-03T07:11:30.341Z,99.90
2019-05-03T07:13:59.826Z,99.90
2019-05-03T07:16:29.427Z,99.90
2019-05-03T07:18:58.744Z,99.90
2019-05-03T07:21:28.155Z,99.90
2019-05-03T07:23:57.661Z,99.90
2019-05-03T07:26:27.257Z,99.90
2019-05-03T07:28:57.670Z,99.90
2019-05-03T07:31:27.190Z,99.90
2019-05-03T07:33:56.782Z,99.90
2019-05-03T07:36:28.369Z,99.90
2019-05-03T07:38:56.517Z,99.90
2019-05-03T07:41:27.256Z,99.90
2019-05-03T07:43:56.029Z,99.90
2019-05-03T07:46:26.362Z,99.90
2019-05-03T07:48:55.534Z,99.90
2019-05-03T07:51:25.990Z,99.90
2019-05-03T07:53:55.690Z,99.90
2019-05-03T07:56:29.096Z,99.90
2019-05-03T07:59:03.167Z,99.90
2019-05-03T08:01:30.776Z,99.90
2019-05-03T08:04:00.215Z,99.90
2019-05-03T08:06:29.774Z,99.90
2019-05-03T08:08:59.267Z,99.90
2019-05-03T08:11:28.670Z,99.90
2019-05-03T08:13:58.185Z,99.90
2019-05-03T08:16:27.892Z,99.90
2019-05-03T08:18:57.303Z,99.90
2019-05-03T08:21:26.677Z,99.90
2019-05-03T08:23:56.420Z,99.90
2019-05-03T08:26:25.899Z,99.90
2019-05-03T08:28:55.721Z,99.90
2019-05-03T08:31:32.528Z,99.90
2019-05-03T08:34:04.817Z,99.90
2019-05-03T08:39:27.660Z,99.90
2019-05-03T08:41:58.679Z,99.90
2019-05-03T08:44:28.088Z,99.90
2019-05-03T08:46:58.030Z,99.90
2019-05-03T08:49:27.630Z,99.90
2019-05-03T08:51:56.900Z,99.90
2019-05-03T08:54:27.054Z,99.90
2019-05-03T08:56:56.734Z,99.90
2019-05-03T08:59:32.195Z,99.90
2019-05-03T09:01:56.762Z,99.90
2019-05-03T09:04:36.141Z,99.90
2019-05-03T09:06:56.080Z,99.90
2019-05-03T09:09:34.902Z,99.90
2019-05-03T09:12:04.792Z,99.90
2019-05-03T09:14:42.605Z,99.90
2019-05-03T09:17:04.938Z,99.90
2019-05-03T09:19:34.727Z,99.90
2019-05-03T09:22:05.979Z,99.90
2019-05-03T09:24:35.164Z,99.90
2019-05-03T09:27:05.104Z,99.90
2019-05-03T09:29:41.071Z,99.90
2019-05-03T09:32:05.203Z,99.90
2019-05-03T09:34:35.161Z,99.90
2019-05-03T09:37:04.791Z,99.90
2019-05-03T09:39:35.477Z,99.90
2019-05-03T09:42:04.712Z,99.90
2019-05-03T09:44:35.023Z,99.90
2019-05-03T09:47:05.595Z,99.90
2019-05-03T09:49:34.787Z,99.90
2019-05-03T09:52:08.005Z,99.90
2019-05-03T09:54:34.813Z,99.90
2019-05-03T09:57:05.875Z,99.90
2019-05-03T09:59:35.018Z,99.90
2019-05-03T10:02:05.018Z,99.90
2019-05-03T10:04:36.361Z,99.90
2019-05-03T10:07:04.470Z,99.90
2019-05-03T10:09:35.415Z,99.90
2019-05-03T10:12:05.478Z,99.90
2019-05-03T10:14:33.944Z,99.90
2019-05-03T10:17:05.500Z,99.90
2019-05-03T10:19:39.973Z,99.90
2019-05-03T10:22:05.898Z,99.90
2019-05-03T10:24:35.099Z,99.90
2019-05-03T10:27:05.631Z,99.90
2019-05-03T10:29:34.067Z,99.90
2019-05-03T10:32:06.494Z,99.90
2019-05-03T10:34:35.822Z,99.90
2019-05-03T10:37:06.832Z,99.90
2019-05-03T10:39:37.039Z,99.90
2019-05-03T10:42:06.363Z,99.90
2019-05-03T10:44:36.779Z,99.90
2019-05-03T10:47:06.407Z,99.90
2019-05-03T10:49:35.977Z,99.90
2019-05-03T10:52:05.701Z,99.90
2019-05-03T10:54:35.854Z,99.90
2019-05-03T10:57:12.395Z,99.90
2019-05-03T10:59:41.898Z,99.90
2019-05-03T11:02:12.331Z,99.90
2019-05-03T11:04:43.677Z,99.90
2019-05-03T11:07:11.848Z,99.90
2019-05-03T11:09:49.818Z,99.90
2019-05-03T11:12:11.160Z,99.90
2019-05-03T11:14:40.475Z,99.90
2019-05-03T11:17:10.067Z,99.90
2019-05-03T11:19:39.464Z,99.90
2019-05-03T11:22:09.298Z,99.90
2019-05-03T11:24:39.706Z,99.90
2019-05-03T11:27:11.260Z,99.90
2019-05-03T11:29:40.561Z,99.90
2019-05-03T11:32:14.858Z,99.90
2019-05-03T11:34:48.285Z,99.90
2019-05-03T11:40:15.693Z,99.90
2019-05-03T11:42:44.782Z,99.90
2019-05-03T11:45:15.238Z,99.90
2019-05-03T11:47:45.713Z,99.90
2019-05-03T11:50:14.905Z,99.90
2019-05-03T11:52:46.857Z,99.90
2019-05-03T11:55:15.997Z,99.90
2019-05-03T11:57:45.184Z,99.90
2019-05-03T12:00:14.982Z,99.90
2019-05-03T12:02:44.878Z,99.90
2019-05-03T12:05:30.497Z,99.90
2019-05-03T12:08:00.253Z,99.90
2019-05-03T12:10:46.002Z,99.90
2019-05-03T12:12:59.710Z,99.90
2019-05-03T12:15:29.454Z,99.90
2019-05-03T12:18:02.355Z,99.90
2019-05-03T12:20:32.793Z,99.90
2019-05-03T12:23:02.286Z,99.90
2019-05-03T12:25:32.014Z,99.90
2019-05-03T12:28:01.930Z,99.90
2019-05-03T12:30:31.357Z,99.90
2019-05-03T12:33:00.844Z,99.90
2019-05-03T12:35:30.456Z,99.90
2019-05-03T12:37:59.863Z,99.90
2019-05-03T12:40:29.354Z,99.90
2019-05-03T12:42:58.887Z,99.90
2019-05-03T12:45:29.324Z,99.90
2019-05-03T12:47:59.839Z,99.90
2019-05-03T12:50:29.338Z,99.90
2019-05-03T12:52:58.623Z,99.90
2019-05-03T12:55:28.235Z,99.90
2019-05-03T12:57:57.640Z,99.90
2019-05-03T13:00:30.214Z,99.90
2019-05-03T13:03:05.164Z,99.90
2019-05-03T13:05:35.621Z,99.90
2019-05-03T13:08:20.239Z,99.90
2019-05-03T13:10:49.927Z,99.90
2019-05-03T13:13:19.546Z,99.90
2019-05-03T13:15:49.064Z,99.90
2019-05-03T13:18:18.466Z,99.90
2019-05-03T13:20:47.870Z,99.90
2019-05-03T13:23:17.279Z,99.90
2019-05-03T13:25:46.750Z,99.90
2019-05-03T13:28:16.187Z,99.90
2019-05-03T13:30:45.904Z,99.90
2019-05-03T13:33:15.385Z,99.90
2019-05-03T13:35:44.989Z,99.90
2019-05-03T13:38:14.273Z,99.90
2019-05-03T13:40:45.195Z,99.90
2019-05-03T13:43:14.998Z,99.90
2019-05-03T13:45:45.063Z,99.90
2019-05-03T13:48:15.539Z,99.90
2019-05-03T13:50:44.640Z,99.90
2019-05-03T13:53:13.602Z,99.90
2019-05-03T13:55:44.539Z,99.90
2019-05-03T13:58:14.636Z,99.90
2019-05-03T14:00:45.159Z,99.90
2019-05-03T14:03:12.732Z,99.90
2019-05-03T14:05:41.916Z,99.90
2019-05-03T14:08:11.581Z,99.90
2019-05-03T14:10:41.236Z,99.90
2019-05-03T14:13:10.984Z,99.90
2019-05-03T14:15:40.455Z,99.90
2019-05-03T14:18:09.751Z,99.90
2019-05-03T14:20:43.296Z,99.90
2019-05-03T14:23:14.888Z,99.90
2019-05-03T14:25:44.653Z,99.90
2019-05-03T14:28:14.578Z,99.90
2019-05-03T14:30:45.362Z,99.90
2019-05-03T14:33:14.135Z,99.90
2019-05-03T14:35:45.244Z,99.90
2019-05-03T14:38:15.116Z,99.90
2019-05-03T14:40:44.886Z,99.90
2019-05-03T14:43:15.426Z,99.90
2019-05-03T14:45:43.646Z,99.90
2019-05-03T14:48:15.066Z,99.90
2019-05-03T14:50:43.079Z,99.90
2019-05-03T14:53:14.632Z,99.90
2019-05-03T14:55:45.148Z,99.90
2019-05-03T14:58:17.683Z,99.90
2019-05-03T15:01:04.655Z,99.90
2019-05-03T15:03:32.286Z,99.90
2019-05-03T15:06:01.795Z,99.90
2019-05-03T15:08:31.190Z,99.90
2019-05-03T15:11:00.794Z,99.90
2019-05-03T15:13:30.110Z,99.90
2019-05-03T15:15:59.583Z,99.90
2019-05-03T15:18:29.220Z,99.90
2019-05-03T15:20:58.486Z,99.90
2019-05-03T15:23:27.808Z,99.90
2019-05-03T15:25:57.226Z,99.90
2019-05-03T15:28:26.543Z,99.90
2019-05-03T15:30:56.432Z,99.90
2019-05-03T15:33:25.831Z,99.90
2019-05-03T15:35:55.286Z,99.90
2019-05-03T15:38:24.472Z,99.90
2019-05-03T15:40:54.813Z,99.90
2019-05-03T15:43:28.584Z,99.90
2019-05-03T15:46:06.403Z,99.90
2019-05-03T15:48:36.698Z,99.90
2019-05-03T15:51:06.100Z,99.90
2019-05-03T15:53:35.523Z,99.90
2019-05-03T15:56:05.492Z,99.90
2019-05-03T15:58:35.092Z,99.90
2019-05-03T16:01:04.795Z,99.90
2019-05-03T16:03:35.751Z,99.90
2019-05-03T16:06:04.911Z,99.90
2019-05-03T16:08:34.335Z,99.90
2019-05-03T16:11:05.266Z,99.90
2019-05-03T16:13:35.107Z,99.90
2019-05-03T16:16:04.335Z,99.90
2019-05-03T16:18:35.073Z,99.90
2019-05-03T16:21:05.028Z,99.90
2019-05-03T16:23:33.618Z,99.90
2019-05-03T16:26:04.877Z,99.90
2019-05-03T16:28:36.050Z,99.90
2019-05-03T16:31:05.525Z,99.90
2019-05-03T16:33:35.086Z,99.90
2019-05-03T16:36:05.503Z,99.90
2019-05-03T16:38:35.473Z,99.90
2019-05-03T16:41:05.137Z,99.90
2019-05-03T16:43:34.856Z,99.90
2019-05-03T16:46:05.477Z,99.90
2019-05-03T16:48:35.184Z,99.90
2019-05-03T16:51:03.834Z,99.90
2019-05-03T16:53:34.884Z,99.90
2019-05-03T16:56:03.590Z,99.90
2019-05-03T16:58:35.173Z,99.90
2019-05-03T17:01:02.966Z,99.90
2019-05-03T17:03:45.428Z,99.90
2019-05-03T17:09:18.362Z,99.90
2019-05-03T17:11:48.038Z,99.90
2019-05-03T17:14:17.180Z,99.90
2019-05-03T17:16:47.657Z,99.90
2019-05-03T17:19:17.250Z,99.90
2019-05-03T17:21:46.958Z,99.90
2019-05-03T17:24:16.257Z,99.90
2019-05-03T17:26:45.724Z,99.90
2019-05-03T17:29:15.360Z,99.90
2019-05-03T17:31:45.053Z,99.90
2019-05-03T17:34:14.569Z,99.90
2019-05-03T17:36:45.021Z,99.90
2019-05-03T17:39:15.550Z,99.90
2019-05-03T17:41:50.478Z,99.90
2019-05-03T17:44:20.861Z,99.90
2019-05-03T17:46:50.553Z,99.70
2019-05-03T17:49:20.069Z,99.80
2019-05-03T17:51:55.572Z,98.90
2019-05-03T17:57:25.266Z,99.30
2019-05-03T17:59:56.018Z,98.90
2019-05-03T18:02:31.356Z,98.50
2019-05-03T18:05:06.200Z,98.60
2019-05-03T18:07:37.235Z,98.50
2019-05-03T18:10:07.423Z,98.10
2019-05-03T18:12:36.971Z,98.50
2019-05-03T18:15:07.491Z,98.90
2019-05-03T18:17:36.776Z,99.30
2019-05-03T18:20:06.531Z,98.10
2019-05-03T18:22:35.991Z,97.60
2019-05-03T18:25:06.044Z,96.90
2019-05-03T18:27:35.755Z,96.20
2019-05-03T18:30:06.288Z,96.60
2019-05-03T18:32:36.076Z,96.70
2019-05-03T18:35:05.384Z,97.40
2019-05-03T18:37:34.968Z,96.80
2019-05-03T18:40:04.988Z,96.90
2019-05-03T18:42:35.449Z,96.40
2019-05-03T18:45:08.268Z,96.80
2019-05-03T18:47:37.915Z,97.50
2019-05-03T18:50:08.154Z,96.50
2019-05-03T18:52:37.485Z,95.90
2019-05-03T18:55:07.184Z,96.20
2019-05-03T18:57:36.895Z,96.30
2019-05-03T19:00:08.223Z,95.90
2019-05-03T19:02:36.273Z,95.90
2019-05-03T19:05:06.395Z,95.60
2019-05-03T19:07:41.137Z,96.20
2019-05-03T19:10:10.914Z,96.20
2019-05-03T19:12:40.577Z,95.80
2019-05-03T19:15:10.448Z,95.60
2019-05-03T19:17:45.473Z,95.50
2019-05-03T19:20:15.587Z,95.10
2019-05-03T19:22:46.037Z,95.20
2019-05-03T19:25:15.492Z,95.20
2019-05-03T19:27:45.189Z,96.20
2019-05-03T19:30:14.940Z,94.60
2019-05-03T19:32:45.059Z,94.30
2019-05-03T19:35:15.734Z,94.50
2019-05-03T19:37:46.394Z,93.60
2019-05-03T19:40:14.490Z,93.40
2019-05-03T19:42:44.741Z,95.80
2019-05-03T19:45:15.227Z,92.00
2019-05-03T19:47:44.602Z,92.90
2019-05-03T19:50:15.539Z,92.90
2019-05-03T19:52:48.743Z,92.90
2019-05-03T19:55:17.945Z,91.00
2019-05-03T19:57:47.582Z,90.70
2019-05-03T20:00:17.302Z,90.70
2019-05-03T20:02:51.865Z,90.10
2019-05-03T20:08:25.341Z,87.30
2019-05-03T20:11:10.209Z,87.50
2019-05-03T20:13:39.515Z,87.70
2019-05-03T20:16:09.117Z,88.60
2019-05-03T20:18:38.423Z,86.70
2019-05-03T20:21:07.848Z,84.80
2019-05-03T20:23:37.138Z,85.10
2019-05-03T20:26:06.659Z,84.70
2019-05-03T20:28:36.155Z,85.60
2019-05-03T20:31:05.653Z,84.60
2019-05-03T20:33:35.254Z,84.90
2019-05-03T20:36:05.723Z,84.60
2019-05-03T20:38:35.260Z,84.50
2019-05-03T20:41:05.228Z,82.50
2019-05-03T20:43:36.463Z,85.70
2019-05-03T20:46:10.564Z,85.00
2019-05-03T20:48:38.854Z,81.00
2019-05-03T20:51:08.569Z,82.50
2019-05-03T20:53:38.184Z,81.30
2019-05-03T20:56:11.024Z,80.50
2019-05-03T20:58:41.108Z,82.80
2019-05-03T21:01:10.723Z,82.80
2019-05-03T21:03:40.296Z,82.10
2019-05-03T21:06:09.645Z,80.30
2019-05-03T21:08:49.613Z,79.50
2019-05-03T21:11:08.972Z,80.90
2019-05-03T21:13:42.002Z,79.40
2019-05-03T21:16:09.763Z,79.50
2019-05-03T21:18:39.649Z,79.40
2019-05-03T21:21:15.372Z,79.00
2019-05-03T21:26:37.871Z,80.50
2019-05-03T21:29:07.179Z,79.70
2019-05-03T21:31:36.483Z,80.30
2019-05-03T21:34:06.017Z,80.30
2019-05-03T21:36:35.211Z,80.70
2019-05-03T21:39:05.328Z,81.10
2019-05-03T21:41:35.015Z,80.70
2019-05-03T21:44:04.809Z,82.00
2019-05-03T21:46:37.643Z,83.10
2019-05-03T21:49:08.092Z,86.30
2019-05-03T21:51:37.633Z,86.00
2019-05-03T21:54:07.252Z,85.10
2019-05-03T21:56:36.755Z,86.50
2019-05-03T21:59:06.211Z,89.30
2019-05-03T22:01:37.501Z,87.60
2019-05-03T22:04:05.616Z,88.90
2019-05-03T22:06:35.174Z,89.70
2019-05-03T22:09:05.112Z,90.80
2019-05-03T22:11:34.983Z,91.20
2019-05-03T22:14:05.454Z,91.90
2019-05-03T22:16:35.763Z,91.90
2019-05-03T22:19:05.107Z,92.20
2019-05-03T22:21:39.598Z,92.50
2019-05-03T22:24:14.808Z,93.70
2019-05-03T22:26:49.923Z,94.00
2019-05-03T22:29:19.032Z,93.90
2019-05-03T22:31:48.479Z,94.40
2019-05-03T22:34:18.005Z,95.10
2019-05-03T22:36:47.263Z,95.50
2019-05-03T22:39:16.636Z,95.30
2019-05-03T22:41:45.848Z,95.50
2019-05-03T22:44:17.094Z,95.70
2019-05-03T22:46:46.092Z,95.70
2019-05-03T22:49:15.740Z,95.60
2019-05-03T22:51:45.456Z,95.60
2019-05-03T22:54:15.409Z,95.90
2019-05-03T22:56:44.821Z,96.10
2019-05-03T22:59:14.703Z,96.40
2019-05-03T23:01:45.496Z,96.00
2019-05-03T23:04:14.716Z,95.40
2019-05-03T23:06:46.676Z,97.10
2019-05-03T23:09:13.089Z,96.90
2019-05-03T23:11:44.575Z,96.30
2019-05-03T23:14:11.954Z,95.70
2019-05-03T23:16:41.486Z,95.70
2019-05-03T23:19:10.693Z,95.50
2019-05-03T23:21:51.367Z,96.00
2019-05-03T23:24:21.018Z,95.90
2019-05-03T23:26:50.629Z,96.30
2019-05-03T23:29:20.204Z,95.70
2019-05-03T23:31:49.804Z,95.50
2019-05-03T23:34:19.305Z,95.80
2019-05-03T23:36:49.456Z,95.20
2019-05-03T23:39:19.065Z,95.20
2019-05-03T23:41:48.559Z,95.60
2019-05-03T23:44:18.018Z,95.60
2019-05-03T23:46:50.790Z,95.90
2019-05-03T23:49:21.427Z,95.00
2019-05-03T23:51:51.246Z,94.90
2019-05-03T23:54:20.949Z,95.20
2019-05-03T23:56:50.264Z,94.70
2019-05-03T23:59:19.915Z,94.60
